sensor_id;sensor_type;location;lat;lon;timestamp;P1;durP1;ratioP1;P2;durP2;ratioP2
19482;SDS011;9882;51.166;6.992;2022-09-17T04:00:33;9.73;;;3.28;;
19482;SDS011;9882;51.166;6.992;2022-09-17T04:03:04;10.90;;;3.13;;
19482;SDS011;9882;51.166;6.992;2022-09-17T04:05:33;7.50;;;2.90;;
19482;SDS011;9882;51.166;6.992;2022-09-17T04:08:02;13.07;;;3.13;;
19482;SDS011;9882;51.166;6.992;2022-09-17T04:10:32;13.98;;;2.90;;
19482;SDS011;9882;51.166;6.992;2022-09-17T04:13:01;11.68;;;3.20;;
19482;SDS011;9882;51.166;6.992;2022-09-17T04:15:30;8.20;;;2.42;;
19482;SDS011;9882;51.166;6.992;2022-09-17T04:18:00;10.00;;;2.55;;
19482;SDS011;9882;51.166;6.992;2022-09-17T04:20:29;7.75;;;2.92;;
19482;SDS011;9882;51.166;6.992;2022-09-17T04:22:58;15.25;;;3.42;;
19482;SDS011;9882;51.166;6.992;2022-09-17T04:25:28;6.70;;;2.35;;
19482;SDS011;9882;51.166;6.992;2022-09-17T04:27:57;11.05;;;2.75;;
19482;SDS011;9882;51.166;6.992;2022-09-17T04:30:27;4.85;;;2.58;;
19482;SDS011;9882;51.166;6.992;2022-09-17T04:32:56;7.28;;;2.63;;
19482;SDS011;9882;51.166;6.992;2022-09-17T04:35:27;8.48;;;2.83;;
19482;SDS011;9882;51.166;6.992;2022-09-17T04:37:56;12.60;;;3.40;;
19482;SDS011;9882;51.166;6.992;2022-09-17T04:40:25;7.72;;;2.45;;
19482;SDS011;9882;51.166;6.992;2022-09-17T04:42:55;5.75;;;2.65;;
19482;SDS011;9882;51.166;6.992;2022-09-17T04:45:29;13.48;;;3.00;;
19482;SDS011;9882;51.166;6.992;2022-09-17T04:48:00;7.65;;;2.47;;
19482;SDS011;9882;51.166;6.992;2022-09-17T04:50:31;14.27;;;3.38;;
19482;SDS011;9882;51.166;6.992;2022-09-17T04:53:00;7.32;;;2.97;;
19482;SDS011;9882;51.166;6.992;2022-09-17T04:55:30;18.13;;;3.05;;
19482;SDS011;9882;51.166;6.992;2022-09-17T04:58:28;4.45;;;1.95;;
19482;SDS011;9882;51.166;6.992;2022-09-17T05:00:59;13.95;;;3.40;;
19482;SDS011;9882;51.166;6.992;2022-09-17T05:03:29;12.35;;;3.58;;
19482;SDS011;9882;51.166;6.992;2022-09-17T05:05:59;17.30;;;2.97;;
19482;SDS011;9882;51.166;6.992;2022-09-17T05:08:29;12.80;;;3.17;;
19482;SDS011;9882;51.166;6.992;2022-09-17T05:10:59;8.90;;;2.58;;
19482;SDS011;9882;51.166;6.992;2022-09-17T05:13:30;15.18;;;3.40;;
19482;SDS011;9882;51.166;6.992;2022-09-17T05:16:00;9.85;;;3.15;;
19482;SDS011;9882;51.166;6.992;2022-09-17T05:18:30;8.60;;;2.72;;
19482;SDS011;9882;51.166;6.992;2022-09-17T05:21:01;10.25;;;2.83;;
19482;SDS011;9882;51.166;6.992;2022-09-17T05:23:30;12.90;;;3.25;;
19482;SDS011;9882;51.166;6.992;2022-09-17T05:25:59;7.63;;;2.63;;
19482;SDS011;9882;51.166;6.992;2022-09-17T05:28:29;8.23;;;2.67;;
19482;SDS011;9882;51.166;6.992;2022-09-17T05:31:00;11.50;;;2.88;;
19482;SDS011;9882;51.166;6.992;2022-09-17T05:33:31;9.45;;;2.55;;
19482;SDS011;9882;51.166;6.992;2022-09-17T05:36:03;5.65;;;2.33;;
19482;SDS011;9882;51.166;6.992;2022-09-17T05:38:33;7.85;;;2.53;;
19482;SDS011;9882;51.166;6.992;2022-09-17T05:41:02;11.98;;;3.05;;
19482;SDS011;9882;51.166;6.992;2022-09-17T05:43:33;9.45;;;2.65;;
19482;SDS011;9882;51.166;6.992;2022-09-17T05:46:03;10.05;;;3.08;;
19482;SDS011;9882;51.166;6.992;2022-09-17T05:48:33;6.63;;;2.70;;
19482;SDS011;9882;51.166;6.992;2022-09-17T05:51:03;8.50;;;2.70;;
19482;SDS011;9882;51.166;6.992;2022-09-17T05:53:33;9.82;;;3.15;;
19482;SDS011;9882;51.166;6.992;2022-09-17T05:56:02;17.83;;;3.90;;
19482;SDS011;9882;51.166;6.992;2022-09-17T05:58:32;17.42;;;3.00;;
19482;SDS011;9882;51.166;6.992;2022-09-17T06:01:01;10.07;;;2.88;;
19482;SDS011;9882;51.166;6.992;2022-09-17T06:03:31;13.07;;;3.50;;
19482;SDS011;9882;51.166;6.992;2022-09-17T06:06:02;16.20;;;3.25;;
19482;SDS011;9882;51.166;6.992;2022-09-17T06:08:32;13.27;;;3.10;;
19482;SDS011;9882;51.166;6.992;2022-09-17T06:11:03;23.65;;;4.20;;
19482;SDS011;9882;51.166;6.992;2022-09-17T06:13:32;12.07;;;2.97;;
19482;SDS011;9882;51.166;6.992;2022-09-17T06:16:02;19.60;;;4.68;;
19482;SDS011;9882;51.166;6.992;2022-09-17T06:18:32;19.52;;;4.15;;
19482;SDS011;9882;51.166;6.992;2022-09-17T06:21:01;8.68;;;2.80;;
19482;SDS011;9882;51.166;6.992;2022-09-17T06:23:33;8.93;;;3.03;;
19482;SDS011;9882;51.166;6.992;2022-09-17T06:26:04;13.80;;;2.70;;
19482;SDS011;9882;51.166;6.992;2022-09-17T06:28:33;5.50;;;2.42;;
19482;SDS011;9882;51.166;6.992;2022-09-17T06:31:07;19.90;;;4.00;;
19482;SDS011;9882;51.166;6.992;2022-09-17T06:33:37;7.93;;;2.78;;
19482;SDS011;9882;51.166;6.992;2022-09-17T06:36:08;15.20;;;2.97;;
19482;SDS011;9882;51.166;6.992;2022-09-17T06:38:39;9.75;;;2.88;;
19482;SDS011;9882;51.166;6.992;2022-09-17T06:41:09;14.00;;;3.30;;
19482;SDS011;9882;51.166;6.992;2022-09-17T06:43:40;14.20;;;3.13;;
19482;SDS011;9882;51.166;6.992;2022-09-17T06:46:09;6.53;;;2.75;;
19482;SDS011;9882;51.166;6.992;2022-09-17T06:48:39;16.20;;;2.55;;
19482;SDS011;9882;51.166;6.992;2022-09-17T06:51:10;7.13;;;2.63;;
19482;SDS011;9882;51.166;6.992;2022-09-17T06:53:39;20.73;;;3.70;;
19482;SDS011;9882;51.166;6.992;2022-09-17T06:56:08;9.82;;;2.75;;
19482;SDS011;9882;51.166;6.992;2022-09-17T06:58:37;8.98;;;2.75;;
19482;SDS011;9882;51.166;6.992;2022-09-17T07:01:07;11.85;;;3.22;;
19482;SDS011;9882;51.166;6.992;2022-09-17T07:03:37;10.25;;;3.20;;
19482;SDS011;9882;51.166;6.992;2022-09-17T07:06:10;7.68;;;2.92;;
19482;SDS011;9882;51.166;6.992;2022-09-17T07:08:39;20.27;;;3.50;;
19482;SDS011;9882;51.166;6.992;2022-09-17T07:11:08;5.38;;;2.33;;
19482;SDS011;9882;51.166;6.992;2022-09-17T07:13:37;9.70;;;2.65;;
19482;SDS011;9882;51.166;6.992;2022-09-17T07:16:06;7.13;;;3.10;;
19482;SDS011;9882;51.166;6.992;2022-09-17T07:18:35;6.07;;;2.58;;
19482;SDS011;9882;51.166;6.992;2022-09-17T07:21:05;5.45;;;2.33;;
19482;SDS011;9882;51.166;6.992;2022-09-17T07:23:36;10.27;;;2.83;;
19482;SDS011;9882;51.166;6.992;2022-09-17T07:26:06;12.43;;;3.10;;
19482;SDS011;9882;51.166;6.992;2022-09-17T07:28:39;12.50;;;3.30;;
19482;SDS011;9882;51.166;6.992;2022-09-17T07:31:09;9.57;;;3.08;;
19482;SDS011;9882;51.166;6.992;2022-09-17T07:33:42;16.05;;;4.05;;
19482;SDS011;9882;51.166;6.992;2022-09-17T07:36:12;19.92;;;3.28;;
19482;SDS011;9882;51.166;6.992;2022-09-17T07:38:45;17.48;;;3.08;;
19482;SDS011;9882;51.166;6.992;2022-09-17T07:41:14;17.90;;;3.35;;
19482;SDS011;9882;51.166;6.992;2022-09-17T07:43:44;14.80;;;3.20;;
19482;SDS011;9882;51.166;6.992;2022-09-17T07:46:14;11.75;;;3.38;;
19482;SDS011;9882;51.166;6.992;2022-09-17T07:48:44;6.05;;;2.42;;
19482;SDS011;9882;51.166;6.992;2022-09-17T07:51:14;13.27;;;2.85;;
19482;SDS011;9882;51.166;6.992;2022-09-17T07:53:45;12.88;;;3.33;;
19482;SDS011;9882;51.166;6.992;2022-09-17T07:56:15;12.40;;;2.67;;
19482;SDS011;9882;51.166;6.992;2022-09-17T07:58:45;7.82;;;2.97;;
19482;SDS011;9882;51.166;6.992;2022-09-17T08:01:14;18.48;;;3.15;;
19482;SDS011;9882;51.166;6.992;2022-09-17T08:03:46;18.70;;;2.65;;
19482;SDS011;9882;51.166;6.992;2022-09-17T08:06:17;6.25;;;2.22;;
19482;SDS011;9882;51.166;6.992;2022-09-17T08:08:48;7.80;;;2.03;;
19482;SDS011;9882;51.166;6.992;2022-09-17T08:11:18;14.57;;;2.60;;
19482;SDS011;9882;51.166;6.992;2022-09-17T08:14:09;7.88;;;2.15;;
19482;SDS011;9882;51.166;6.992;2022-09-17T08:16:41;6.18;;;2.13;;
19482;SDS011;9882;51.166;6.992;2022-09-17T08:19:12;11.23;;;2.63;;
19482;SDS011;9882;51.166;6.992;2022-09-17T08:21:41;9.40;;;2.60;;
19482;SDS011;9882;51.166;6.992;2022-09-17T08:24:12;5.57;;;2.53;;
19482;SDS011;9882;51.166;6.992;2022-09-17T08:26:41;9.20;;;2.50;;
19482;SDS011;9882;51.166;6.992;2022-09-17T08:29:10;9.88;;;2.95;;
19482;SDS011;9882;51.166;6.992;2022-09-17T08:31:40;10.93;;;2.75;;
19482;SDS011;9882;51.166;6.992;2022-09-17T08:34:08;4.72;;;2.38;;
19482;SDS011;9882;51.166;6.992;2022-09-17T08:36:38;10.05;;;2.58;;
19482;SDS011;9882;51.166;6.992;2022-09-17T08:39:07;18.33;;;2.65;;
19482;SDS011;9882;51.166;6.992;2022-09-17T08:41:44;11.85;;;2.72;;
19482;SDS011;9882;51.166;6.992;2022-09-17T08:44:21;18.10;;;3.25;;
19482;SDS011;9882;51.166;6.992;2022-09-17T08:46:53;8.43;;;2.30;;
19482;SDS011;9882;51.166;6.992;2022-09-17T08:49:29;7.32;;;2.50;;
19482;SDS011;9882;51.166;6.992;2022-09-17T08:55:14;3.70;;;2.20;;
19482;SDS011;9882;51.166;6.992;2022-09-17T08:57:54;4.45;;;2.38;;
19482;SDS011;9882;51.166;6.992;2022-09-17T09:00:30;9.07;;;2.78;;
19482;SDS011;9882;51.166;6.992;2022-09-17T09:03:09;10.35;;;2.63;;
19482;SDS011;9882;51.166;6.992;2022-09-17T09:05:50;4.28;;;2.08;;
19482;SDS011;9882;51.166;6.992;2022-09-17T09:08:24;4.47;;;1.80;;
19482;SDS011;9882;51.166;6.992;2022-09-17T09:10:58;7.60;;;2.35;;
19482;SDS011;9882;51.166;6.992;2022-09-17T09:13:32;5.35;;;2.20;;
19482;SDS011;9882;51.166;6.992;2022-09-17T09:16:06;8.85;;;1.73;;
19482;SDS011;9882;51.166;6.992;2022-09-17T09:18:40;9.05;;;2.53;;
19482;SDS011;9882;51.166;6.992;2022-09-17T09:21:14;9.27;;;2.60;;
19482;SDS011;9882;51.166;6.992;2022-09-17T09:23:51;5.25;;;1.95;;
19482;SDS011;9882;51.166;6.992;2022-09-17T09:26:31;12.93;;;2.40;;
19482;SDS011;9882;51.166;6.992;2022-09-17T09:29:12;5.70;;;2.30;;
19482;SDS011;9882;51.166;6.992;2022-09-17T09:31:58;4.60;;;2.10;;
19482;SDS011;9882;51.166;6.992;2022-09-17T09:34:42;5.95;;;2.15;;
19482;SDS011;9882;51.166;6.992;2022-09-17T09:37:13;3.92;;;1.75;;
19482;SDS011;9882;51.166;6.992;2022-09-17T09:39:45;5.03;;;2.05;;
19482;SDS011;9882;51.166;6.992;2022-09-17T09:42:17;10.80;;;2.22;;
19482;SDS011;9882;51.166;6.992;2022-09-17T09:44:57;4.43;;;2.10;;
19482;SDS011;9882;51.166;6.992;2022-09-17T09:47:36;10.15;;;2.67;;
19482;SDS011;9882;51.166;6.992;2022-09-17T09:50:20;8.63;;;2.08;;
19482;SDS011;9882;51.166;6.992;2022-09-17T09:53:10;6.55;;;2.00;;
19482;SDS011;9882;51.166;6.992;2022-09-17T09:55:56;12.60;;;2.60;;
19482;SDS011;9882;51.166;6.992;2022-09-17T09:58:34;3.33;;;1.65;;
19482;SDS011;9882;51.166;6.992;2022-09-17T10:01:08;11.45;;;1.98;;
19482;SDS011;9882;51.166;6.992;2022-09-17T10:03:40;3.70;;;1.80;;
19482;SDS011;9882;51.166;6.992;2022-09-17T10:06:13;7.63;;;2.55;;
19482;SDS011;9882;51.166;6.992;2022-09-17T10:11:40;8.02;;;1.92;;
19482;SDS011;9882;51.166;6.992;2022-09-17T10:17:13;5.38;;;2.08;;
19482;SDS011;9882;51.166;6.992;2022-09-17T10:19:45;11.00;;;2.05;;
19482;SDS011;9882;51.166;6.992;2022-09-17T10:22:40;9.85;;;2.15;;
19482;SDS011;9882;51.166;6.992;2022-09-17T10:27:48;6.78;;;2.10;;
19482;SDS011;9882;51.166;6.992;2022-09-17T10:30:17;5.78;;;2.58;;
19482;SDS011;9882;51.166;6.992;2022-09-17T10:32:53;6.45;;;1.92;;
19482;SDS011;9882;51.166;6.992;2022-09-17T10:35:44;10.07;;;2.53;;
19482;SDS011;9882;51.166;6.992;2022-09-17T10:38:26;4.57;;;2.25;;
19482;SDS011;9882;51.166;6.992;2022-09-17T10:41:13;4.60;;;2.00;;
19482;SDS011;9882;51.166;6.992;2022-09-17T10:43:47;13.73;;;2.42;;
19482;SDS011;9882;51.166;6.992;2022-09-17T10:46:18;5.82;;;2.17;;
19482;SDS011;9882;51.166;6.992;2022-09-17T10:48:55;6.95;;;2.17;;
19482;SDS011;9882;51.166;6.992;2022-09-17T10:51:32;7.93;;;2.20;;
19482;SDS011;9882;51.166;6.992;2022-09-17T10:54:04;4.68;;;1.88;;
19482;SDS011;9882;51.166;6.992;2022-09-17T10:57:00;7.82;;;2.05;;
19482;SDS011;9882;51.166;6.992;2022-09-17T11:02:45;2.90;;;1.60;;
19482;SDS011;9882;51.166;6.992;2022-09-17T11:05:44;6.85;;;1.90;;
19482;SDS011;9882;51.166;6.992;2022-09-17T11:08:27;6.75;;;1.77;;
19482;SDS011;9882;51.166;6.992;2022-09-17T11:11:03;3.42;;;1.70;;
19482;SDS011;9882;51.166;6.992;2022-09-17T11:13:38;4.82;;;1.92;;
19482;SDS011;9882;51.166;6.992;2022-09-17T11:16:22;1.70;;;1.52;;
19482;SDS011;9882;51.166;6.992;2022-09-17T11:19:12;3.70;;;1.73;;
19482;SDS011;9882;51.166;6.992;2022-09-17T11:21:53;3.70;;;2.08;;
19482;SDS011;9882;51.166;6.992;2022-09-17T11:24:48;6.90;;;2.08;;
19482;SDS011;9882;51.166;6.992;2022-09-17T11:27:45;7.47;;;1.83;;
19482;SDS011;9882;51.166;6.992;2022-09-17T11:30:28;4.65;;;1.85;;
19482;SDS011;9882;51.166;6.992;2022-09-17T11:33:11;7.53;;;2.30;;
19482;SDS011;9882;51.166;6.992;2022-09-17T11:35:51;11.75;;;1.88;;
19482;SDS011;9882;51.166;6.992;2022-09-17T11:38:28;4.03;;;1.77;;
19482;SDS011;9882;51.166;6.992;2022-09-17T11:41:03;8.82;;;1.92;;
19482;SDS011;9882;51.166;6.992;2022-09-17T11:43:36;7.32;;;2.00;;
19482;SDS011;9882;51.166;6.992;2022-09-17T11:46:08;10.30;;;1.88;;
19482;SDS011;9882;51.166;6.992;2022-09-17T11:48:42;3.67;;;1.80;;
19482;SDS011;9882;51.166;6.992;2022-09-17T11:51:18;6.25;;;2.20;;
19482;SDS011;9882;51.166;6.992;2022-09-17T11:53:58;6.00;;;2.33;;
19482;SDS011;9882;51.166;6.992;2022-09-17T11:56:32;1.52;;;1.40;;
19482;SDS011;9882;51.166;6.992;2022-09-17T11:59:04;3.05;;;1.30;;
19482;SDS011;9882;51.166;6.992;2022-09-17T12:01:43;2.40;;;1.35;;
19482;SDS011;9882;51.166;6.992;2022-09-17T12:04:23;2.40;;;1.40;;
19482;SDS011;9882;51.166;6.992;2022-09-17T12:07:00;5.38;;;1.60;;
19482;SDS011;9882;51.166;6.992;2022-09-17T12:09:38;3.45;;;1.00;;
19482;SDS011;9882;51.166;6.992;2022-09-17T12:12:11;5.43;;;1.52;;
19482;SDS011;9882;51.166;6.992;2022-09-17T12:14:58;7.45;;;1.88;;
19482;SDS011;9882;51.166;6.992;2022-09-17T12:17:35;1.58;;;1.35;;
19482;SDS011;9882;51.166;6.992;2022-09-17T12:20:12;2.50;;;1.70;;
19482;SDS011;9882;51.166;6.992;2022-09-17T12:22:51;6.45;;;1.90;;
19482;SDS011;9882;51.166;6.992;2022-09-17T12:25:22;1.45;;;1.33;;
19482;SDS011;9882;51.166;6.992;2022-09-17T12:27:54;1.80;;;1.48;;
19482;SDS011;9882;51.166;6.992;2022-09-17T12:30:28;5.30;;;1.55;;
19482;SDS011;9882;51.166;6.992;2022-09-17T12:33:06;4.13;;;1.60;;
19482;SDS011;9882;51.166;6.992;2022-09-17T12:41:52;2.88;;;1.83;;
19482;SDS011;9882;51.166;6.992;2022-09-17T12:44:35;0.98;;;0.95;;
19482;SDS011;9882;51.166;6.992;2022-09-17T12:47:21;3.15;;;1.40;;
19482;SDS011;9882;51.166;6.992;2022-09-17T12:50:12;4.60;;;1.40;;
19482;SDS011;9882;51.166;6.992;2022-09-17T12:52:52;1.42;;;1.35;;
19482;SDS011;9882;51.166;6.992;2022-09-17T12:55:34;1.55;;;1.42;;
19482;SDS011;9882;51.166;6.992;2022-09-17T12:58:15;6.55;;;2.00;;
19482;SDS011;9882;51.166;6.992;2022-09-17T13:00:56;8.23;;;1.95;;
19482;SDS011;9882;51.166;6.992;2022-09-17T13:03:31;5.72;;;1.95;;
19482;SDS011;9882;51.166;6.992;2022-09-17T13:06:19;9.90;;;1.95;;
19482;SDS011;9882;51.166;6.992;2022-09-17T13:12:10;1.83;;;1.70;;
19482;SDS011;9882;51.166;6.992;2022-09-17T13:14:50;2.30;;;1.83;;
19482;SDS011;9882;51.166;6.992;2022-09-17T13:17:30;1.88;;;1.50;;
19482;SDS011;9882;51.166;6.992;2022-09-17T13:20:10;3.33;;;1.65;;
19482;SDS011;9882;51.166;6.992;2022-09-17T13:22:44;5.60;;;1.63;;
19482;SDS011;9882;51.166;6.992;2022-09-17T13:25:15;1.75;;;1.65;;
19482;SDS011;9882;51.166;6.992;2022-09-17T13:27:46;1.63;;;1.33;;
19482;SDS011;9882;51.166;6.992;2022-09-17T13:30:18;6.22;;;1.50;;
19482;SDS011;9882;51.166;6.992;2022-09-17T13:32:48;3.42;;;1.58;;
19482;SDS011;9882;51.166;6.992;2022-09-17T13:38:18;2.50;;;1.38;;
19482;SDS011;9882;51.166;6.992;2022-09-17T13:40:48;6.53;;;1.90;;
19482;SDS011;9882;51.166;6.992;2022-09-17T13:43:19;4.97;;;1.48;;
19482;SDS011;9882;51.166;6.992;2022-09-17T13:46:10;8.60;;;1.65;;
19482;SDS011;9882;51.166;6.992;2022-09-17T13:48:49;5.65;;;1.55;;
19482;SDS011;9882;51.166;6.992;2022-09-17T13:54:19;7.15;;;1.90;;
19482;SDS011;9882;51.166;6.992;2022-09-17T13:59:50;5.03;;;1.50;;
19482;SDS011;9882;51.166;6.992;2022-09-17T14:02:27;13.73;;;2.08;;
19482;SDS011;9882;51.166;6.992;2022-09-17T14:08:09;1.58;;;1.40;;
19482;SDS011;9882;51.166;6.992;2022-09-17T14:10:41;1.70;;;1.42;;
19482;SDS011;9882;51.166;6.992;2022-09-17T14:19:04;5.25;;;2.08;;
19482;SDS011;9882;51.166;6.992;2022-09-17T14:21:58;3.88;;;1.65;;
19482;SDS011;9882;51.166;6.992;2022-09-17T14:24:33;10.00;;;1.98;;
19482;SDS011;9882;51.166;6.992;2022-09-17T14:27:06;3.13;;;1.70;;
19482;SDS011;9882;51.166;6.992;2022-09-17T14:29:48;2.80;;;1.67;;
19482;SDS011;9882;51.166;6.992;2022-09-17T14:32:29;5.43;;;1.85;;
19482;SDS011;9882;51.166;6.992;2022-09-17T14:35:13;8.07;;;2.25;;
19482;SDS011;9882;51.166;6.992;2022-09-17T14:37:48;6.50;;;1.95;;
19482;SDS011;9882;51.166;6.992;2022-09-17T14:40:22;4.38;;;2.17;;
19482;SDS011;9882;51.166;6.992;2022-09-17T14:42:52;6.97;;;1.92;;
19482;SDS011;9882;51.166;6.992;2022-09-17T14:45:25;9.77;;;1.75;;
19482;SDS011;9882;51.166;6.992;2022-09-17T14:56:47;9.13;;;2.78;;
19482;SDS011;9882;51.166;6.992;2022-09-17T14:59:20;10.68;;;2.40;;
19482;SDS011;9882;51.166;6.992;2022-09-17T15:01:54;5.32;;;2.33;;
19482;SDS011;9882;51.166;6.992;2022-09-17T15:04:24;10.32;;;2.20;;
19482;SDS011;9882;51.166;6.992;2022-09-17T15:07:06;6.50;;;2.50;;
19482;SDS011;9882;51.166;6.992;2022-09-17T15:09:36;4.20;;;2.20;;
19482;SDS011;9882;51.166;6.992;2022-09-17T15:12:05;6.68;;;2.63;;
19482;SDS011;9882;51.166;6.992;2022-09-17T15:14:35;6.22;;;2.03;;
19482;SDS011;9882;51.166;6.992;2022-09-17T15:17:06;2.53;;;1.58;;
19482;SDS011;9882;51.166;6.992;2022-09-17T15:19:43;5.90;;;2.30;;
19482;SDS011;9882;51.166;6.992;2022-09-17T15:22:19;4.50;;;2.17;;
19482;SDS011;9882;51.166;6.992;2022-09-17T15:24:51;12.32;;;2.20;;
19482;SDS011;9882;51.166;6.992;2022-09-17T15:27:25;4.85;;;1.80;;
19482;SDS011;9882;51.166;6.992;2022-09-17T15:29:57;5.13;;;2.08;;
19482;SDS011;9882;51.166;6.992;2022-09-17T15:32:29;6.55;;;2.38;;
19482;SDS011;9882;51.166;6.992;2022-09-17T15:35:12;6.88;;;2.13;;
19482;SDS011;9882;51.166;6.992;2022-09-17T15:37:47;9.82;;;1.98;;
19482;SDS011;9882;51.166;6.992;2022-09-17T15:40:27;7.97;;;2.45;;
19482;SDS011;9882;51.166;6.992;2022-09-17T15:43:12;4.53;;;1.85;;
19482;SDS011;9882;51.166;6.992;2022-09-17T15:45:45;4.10;;;2.03;;
19482;SDS011;9882;51.166;6.992;2022-09-17T15:48:20;4.95;;;2.20;;
19482;SDS011;9882;51.166;6.992;2022-09-17T15:51:02;4.20;;;1.90;;
19482;SDS011;9882;51.166;6.992;2022-09-17T15:53:34;5.68;;;2.20;;
19482;SDS011;9882;51.166;6.992;2022-09-17T15:56:04;5.78;;;2.00;;
19482;SDS011;9882;51.166;6.992;2022-09-17T15:58:35;8.93;;;2.65;;
19482;SDS011;9882;51.166;6.992;2022-09-17T16:04:21;11.32;;;1.98;;
19482;SDS011;9882;51.166;6.992;2022-09-17T16:06:58;4.60;;;1.83;;
19482;SDS011;9882;51.166;6.992;2022-09-17T16:12:23;5.07;;;2.10;;
19482;SDS011;9882;51.166;6.992;2022-09-17T16:14:53;4.13;;;2.13;;
19482;SDS011;9882;51.166;6.992;2022-09-17T16:17:28;10.75;;;2.70;;
19482;SDS011;9882;51.166;6.992;2022-09-17T16:20:07;7.78;;;2.55;;
19482;SDS011;9882;51.166;6.992;2022-09-17T16:22:41;13.95;;;3.15;;
19482;SDS011;9882;51.166;6.992;2022-09-17T16:25:14;3.63;;;2.03;;
19482;SDS011;9882;51.166;6.992;2022-09-17T16:27:46;6.13;;;2.17;;
19482;SDS011;9882;51.166;6.992;2022-09-17T16:30:18;10.57;;;2.65;;
19482;SDS011;9882;51.166;6.992;2022-09-17T16:32:49;5.28;;;2.25;;
19482;SDS011;9882;51.166;6.992;2022-09-17T16:35:19;12.10;;;2.35;;
19482;SDS011;9882;51.166;6.992;2022-09-17T16:37:54;11.65;;;2.33;;
19482;SDS011;9882;51.166;6.992;2022-09-17T16:40:25;7.82;;;2.17;;
19482;SDS011;9882;51.166;6.992;2022-09-17T16:42:58;6.95;;;2.10;;
19482;SDS011;9882;51.166;6.992;2022-09-17T16:45:28;8.20;;;2.42;;
19482;SDS011;9882;51.166;6.992;2022-09-17T16:47:58;9.35;;;2.67;;
19482;SDS011;9882;51.166;6.992;2022-09-17T16:50:27;7.03;;;2.20;;
19482;SDS011;9882;51.166;6.992;2022-09-17T16:52:56;6.93;;;1.73;;
19482;SDS011;9882;51.166;6.992;2022-09-17T16:58:36;8.30;;;1.83;;
19482;SDS011;9882;51.166;6.992;2022-09-17T17:01:09;3.63;;;1.75;;
19482;SDS011;9882;51.166;6.992;2022-09-17T17:03:39;4.72;;;2.00;;
19482;SDS011;9882;51.166;6.992;2022-09-17T17:06:13;3.40;;;1.70;;
19482;SDS011;9882;51.166;6.992;2022-09-17T17:08:43;3.40;;;1.40;;
19482;SDS011;9882;51.166;6.992;2022-09-17T17:11:13;6.60;;;1.77;;
19482;SDS011;9882;51.166;6.992;2022-09-17T17:13:43;4.93;;;2.00;;
19482;SDS011;9882;51.166;6.992;2022-09-17T17:16:12;8.98;;;1.95;;
19482;SDS011;9882;51.166;6.992;2022-09-17T17:18:42;3.00;;;1.63;;
19482;SDS011;9882;51.166;6.992;2022-09-17T17:21:12;10.65;;;2.17;;
19482;SDS011;9882;51.166;6.992;2022-09-17T17:23:41;3.67;;;1.67;;
19482;SDS011;9882;51.166;6.992;2022-09-17T17:26:14;4.53;;;1.65;;
19482;SDS011;9882;51.166;6.992;2022-09-17T17:28:44;3.55;;;1.65;;
19482;SDS011;9882;51.166;6.992;2022-09-17T17:31:15;8.00;;;2.08;;
19482;SDS011;9882;51.166;6.992;2022-09-17T17:33:44;6.05;;;1.83;;
19482;SDS011;9882;51.166;6.992;2022-09-17T17:36:13;2.45;;;1.40;;
19482;SDS011;9882;51.166;6.992;2022-09-17T17:38:42;4.05;;;1.92;;
19482;SDS011;9882;51.166;6.992;2022-09-17T17:41:12;4.68;;;1.75;;
19482;SDS011;9882;51.166;6.992;2022-09-17T17:43:51;3.28;;;1.83;;
19482;SDS011;9882;51.166;6.992;2022-09-17T17:46:21;7.15;;;2.17;;
19482;SDS011;9882;51.166;6.992;2022-09-17T17:48:51;6.38;;;2.00;;
19482;SDS011;9882;51.166;6.992;2022-09-17T17:51:20;3.30;;;2.10;;
19482;SDS011;9882;51.166;6.992;2022-09-17T17:53:50;4.20;;;2.42;;
19482;SDS011;9882;51.166;6.992;2022-09-17T17:56:19;3.20;;;2.10;;
19482;SDS011;9882;51.166;6.992;2022-09-17T17:58:54;4.43;;;2.20;;
19482;SDS011;9882;51.166;6.992;2022-09-17T18:01:25;6.85;;;2.85;;
19482;SDS011;9882;51.166;6.992;2022-09-17T18:03:55;7.05;;;2.78;;
19482;SDS011;9882;51.166;6.992;2022-09-17T18:06:25;7.20;;;2.50;;
19482;SDS011;9882;51.166;6.992;2022-09-17T18:08:54;7.53;;;2.80;;
19482;SDS011;9882;51.166;6.992;2022-09-17T18:11:24;4.03;;;2.38;;
19482;SDS011;9882;51.166;6.992;2022-09-17T18:13:56;5.90;;;2.72;;
19482;SDS011;9882;51.166;6.992;2022-09-17T18:16:26;9.55;;;3.15;;
19482;SDS011;9882;51.166;6.992;2022-09-17T18:18:56;7.95;;;2.85;;
19482;SDS011;9882;51.166;6.992;2022-09-17T18:21:26;7.57;;;2.22;;
19482;SDS011;9882;51.166;6.992;2022-09-17T18:23:55;6.80;;;2.97;;
19482;SDS011;9882;51.166;6.992;2022-09-17T18:26:25;6.72;;;2.83;;
19482;SDS011;9882;51.166;6.992;2022-09-17T18:28:56;6.78;;;3.58;;
19482;SDS011;9882;51.166;6.992;2022-09-17T18:31:28;6.45;;;3.33;;
19482;SDS011;9882;51.166;6.992;2022-09-17T18:33:59;7.20;;;3.42;;
19482;SDS011;9882;51.166;6.992;2022-09-17T18:36:30;6.45;;;3.45;;
19482;SDS011;9882;51.166;6.992;2022-09-17T18:39:00;9.02;;;3.58;;
19482;SDS011;9882;51.166;6.992;2022-09-17T18:41:51;11.10;;;4.40;;
19482;SDS011;9882;51.166;6.992;2022-09-17T18:44:21;14.35;;;4.25;;
19482;SDS011;9882;51.166;6.992;2022-09-17T18:46:51;11.68;;;4.18;;
19482;SDS011;9882;51.166;6.992;2022-09-17T18:49:20;13.25;;;3.65;;
19482;SDS011;9882;51.166;6.992;2022-09-17T18:51:49;15.68;;;4.30;;
19482;SDS011;9882;51.166;6.992;2022-09-17T18:54:17;10.20;;;3.83;;
19482;SDS011;9882;51.166;6.992;2022-09-17T18:56:46;9.65;;;3.20;;
19482;SDS011;9882;51.166;6.992;2022-09-17T18:59:15;13.10;;;3.40;;
19482;SDS011;9882;51.166;6.992;2022-09-17T19:01:47;7.53;;;3.33;;
19482;SDS011;9882;51.166;6.992;2022-09-17T19:04:16;9.82;;;3.88;;
19482;SDS011;9882;51.166;6.992;2022-09-17T19:06:45;12.38;;;3.65;;
19482;SDS011;9882;51.166;6.992;2022-09-17T19:09:14;8.32;;;3.53;;
19482;SDS011;9882;51.166;6.992;2022-09-17T19:11:43;10.82;;;3.78;;
19482;SDS011;9882;51.166;6.992;2022-09-17T19:14:12;12.85;;;3.50;;
19482;SDS011;9882;51.166;6.992;2022-09-17T19:16:41;12.75;;;3.67;;
19482;SDS011;9882;51.166;6.992;2022-09-17T19:19:12;9.23;;;3.67;;
19482;SDS011;9882;51.166;6.992;2022-09-17T19:21:41;8.00;;;3.58;;
19482;SDS011;9882;51.166;6.992;2022-09-17T19:24:09;11.07;;;3.50;;
19482;SDS011;9882;51.166;6.992;2022-09-17T19:26:39;10.10;;;3.97;;
19482;SDS011;9882;51.166;6.992;2022-09-17T19:29:08;8.65;;;3.50;;
19482;SDS011;9882;51.166;6.992;2022-09-17T19:31:37;6.70;;;3.45;;
19482;SDS011;9882;51.166;6.992;2022-09-17T19:34:06;6.60;;;3.70;;
19482;SDS011;9882;51.166;6.992;2022-09-17T19:36:37;13.10;;;4.10;;
19482;SDS011;9882;51.166;6.992;2022-09-17T19:39:06;17.80;;;5.05;;
19482;SDS011;9882;51.166;6.992;2022-09-17T19:41:36;6.50;;;3.47;;
19482;SDS011;9882;51.166;6.992;2022-09-17T19:44:05;18.30;;;4.40;;
19482;SDS011;9882;51.166;6.992;2022-09-17T19:46:34;20.05;;;4.53;;
19482;SDS011;9882;51.166;6.992;2022-09-17T19:49:03;7.93;;;3.45;;
19482;SDS011;9882;51.166;6.992;2022-09-17T19:51:33;12.45;;;3.88;;
19482;SDS011;9882;51.166;6.992;2022-09-17T19:54:05;14.68;;;3.50;;
19482;SDS011;9882;51.166;6.992;2022-09-17T19:56:35;15.32;;;3.08;;
19482;SDS011;9882;51.166;6.992;2022-09-17T19:59:05;7.40;;;2.65;;
19482;SDS011;9882;51.166;6.992;2022-09-17T20:01:34;11.63;;;2.38;;
19482;SDS011;9882;51.166;6.992;2022-09-17T20:04:03;6.43;;;2.35;;
19482;SDS011;9882;51.166;6.992;2022-09-17T20:06:33;8.55;;;2.88;;
19482;SDS011;9882;51.166;6.992;2022-09-17T20:09:02;16.48;;;3.05;;
19482;SDS011;9882;51.166;6.992;2022-09-17T20:11:33;5.30;;;2.45;;
19482;SDS011;9882;51.166;6.992;2022-09-17T20:14:07;8.70;;;3.05;;
19482;SDS011;9882;51.166;6.992;2022-09-17T20:16:38;9.88;;;2.72;;
19482;SDS011;9882;51.166;6.992;2022-09-17T20:19:09;12.80;;;2.60;;
19482;SDS011;9882;51.166;6.992;2022-09-17T20:21:44;6.78;;;2.45;;
19482;SDS011;9882;51.166;6.992;2022-09-17T20:24:15;4.00;;;2.35;;
19482;SDS011;9882;51.166;6.992;2022-09-17T20:26:45;2.15;;;1.77;;
19482;SDS011;9882;51.166;6.992;2022-09-17T20:29:14;8.25;;;2.72;;
19482;SDS011;9882;51.166;6.992;2022-09-17T20:31:43;12.73;;;4.00;;
19482;SDS011;9882;51.166;6.992;2022-09-17T20:34:12;7.07;;;2.85;;